Time;durP1;ratioP1;P1;durP2;ratioP2;P2;SDS_P1;SDS_P2;PMS_P1;PMS_P2;Temp;Humidity;BMP_temperature;BMP_pressure;BME280_temperature;BME280_humidity;BME280_pressure;Samples;Min_cycle;Max_cycle;Signal;HPM_P1;HPM_P2
2021/01/30 00:01:14;;;;;;;4.43;1.80;;;;;;;7.23;78.40;97552.94;5072264;28;20070;-64
2021/01/30 00:03:41;;;;;;;5.53;2.25;;;;;;;7.20;78.19;97545.44;5072211;28;20555;-65
2021/01/30 00:06:08;;;;;;;6.05;1.85;;;;;;;7.10;77.67;97559.00;5071921;28;20055;-65
2021/01/30 00:08:35;;;;;;;3.58;1.63;;;;;;;7.02;77.27;97543.44;5072078;28;20055;-65
2021/01/30 00:11:01;;;;;;;6.25;1.58;;;;;;;6.95;77.02;97545.22;5072144;28;20487;-65
2021/01/30 00:13:28;;;;;;;4.80;1.63;;;;;;;6.95;76.99;97535.53;5072281;28;20040;-64
2021/01/30 00:15:55;;;;;;;2.78;1.65;;;;;;;6.96;77.13;97544.22;5071984;28;20051;-64
2021/01/30 00:18:22;;;;;;;4.43;1.67;;;;;;;6.95;76.96;97543.41;5072063;28;20036;-64
2021/01/30 00:20:49;;;;;;;3.95;1.40;;;;;;;6.98;77.01;97542.22;5071977;28;20040;-65
2021/01/30 00:23:15;;;;;;;3.13;1.52;;;;;;;6.94;77.16;97538.38;5072090;28;20052;-65
2021/01/30 00:25:42;;;;;;;7.53;1.95;;;;;;;6.99;76.76;97532.50;5071828;28;20075;-65
2021/01/30 00:28:09;;;;;;;4.65;1.60;;;;;;;6.90;76.94;97524.81;5071927;28;20048;-64
2021/01/30 00:30:37;;;;;;;2.50;1.30;;;;;;;6.88;76.66;97533.91;5071910;28;20040;-65
2021/01/30 00:33:06;;;;;;;4.35;1.08;;;;;;;6.90;76.20;97537.16;5071934;28;20075;-65
2021/01/30 00:35:34;;;;;;;2.38;1.02;;;;;;;6.90;76.20;97540.56;5071611;28;20044;-65
2021/01/30 00:38:02;;;;;;;4.63;1.42;;;;;;;6.87;76.12;97538.34;5071857;28;20127;-65
2021/01/30 00:40:28;;;;;;;3.17;1.27;;;;;;;6.84;76.03;97537.94;5070588;28;20043;-64
2021/01/30 00:42:56;;;;;;;2.55;1.38;;;;;;;6.91;76.10;97534.31;5071826;28;20525;-65
2021/01/30 00:45:25;;;;;;;3.85;1.75;;;;;;;6.95;76.38;97524.22;5071683;28;20386;-64
2021/01/30 00:47:53;;;;;;;6.22;1.58;;;;;;;6.98;76.26;97536.13;5072498;28;20048;-65
2021/01/30 00:50:24;;;;;;;3.22;1.48;;;;;;;6.97;76.68;97542.38;5070603;28;20096;-65
2021/01/30 00:52:51;;;;;;;4.70;1.75;;;;;;;6.98;76.60;97542.22;5070820;28;20404;-65
2021/01/30 00:55:27;;;;;;;5.85;1.75;;;;;;;6.94;76.61;97536.53;5070638;28;20045;-65
2021/01/30 00:57:59;;;;;;;4.07;1.90;;;;;;;6.95;76.81;97538.16;5071186;28;20049;-65
2021/01/30 01:00:30;;;;;;;7.90;1.80;;;;;;;7.00;76.93;97540.19;5070874;28;20048;-64
2021/01/30 01:03:00;;;;;;;5.78;1.75;;;;;;;7.00;76.66;97542.81;5071017;28;20045;-65
2021/01/30 01:05:39;;;;;;;5.20;0.98;;;;;;;7.00;76.38;97545.44;5070611;28;20050;-65
2021/01/30 01:08:06;;;;;;;4.28;1.30;;;;;;;7.04;76.11;97543.22;5072347;28;20040;-65
2021/01/30 01:10:32;;;;;;;5.32;1.75;;;;;;;7.12;76.01;97548.28;5073090;28;20040;-65
2021/01/30 01:13:00;;;;;;;4.78;1.50;;;;;;;7.12;76.03;97556.16;5073761;28;20048;-64
2021/01/30 01:15:26;;;;;;;3.58;1.20;;;;;;;7.05;75.71;97557.97;5072064;28;20502;-65
2021/01/30 01:17:54;;;;;;;4.50;1.38;;;;;;;7.04;75.37;97556.34;5070096;28;20045;-65
2021/01/30 01:20:22;;;;;;;4.97;1.58;;;;;;;7.06;75.45;97551.69;5071445;28;20415;-64
2021/01/30 01:22:51;;;;;;;2.30;1.10;;;;;;;7.08;75.51;97560.19;5071546;28;20045;-66
2021/01/30 01:25:20;;;;;;;2.88;1.08;;;;;;;7.05;75.70;97552.72;5071359;28;20040;-65
2021/01/30 01:27:47;;;;;;;4.85;1.23;;;;;;;7.04;75.92;97556.34;5073223;28;20495;-65
2021/01/30 01:30:15;;;;;;;2.17;1.15;;;;;;;7.03;76.27;97545.03;5071579;28;20138;-65
2021/01/30 01:32:42;;;;;;;4.53;1.10;;;;;;;7.05;76.33;97552.72;5071294;28;20108;-65
2021/01/30 01:35:13;;;;;;;4.32;1.35;;;;;;;7.05;76.84;97553.50;5070626;28;20135;-65
2021/01/30 01:37:39;;;;;;;6.10;1.70;;;;;;;7.05;76.80;97550.88;5071156;28;20040;-65
2021/01/30 01:40:09;;;;;;;5.72;1.40;;;;;;;7.05;77.03;97550.09;5071248;28;20041;-65
2021/01/30 01:42:36;;;;;;;4.90;1.58;;;;;;;7.01;77.25;97549.66;5072876;28;20041;-64
2021/01/30 01:45:04;;;;;;;3.70;1.63;;;;;;;7.03;77.71;97545.03;5073273;28;20044;-64
2021/01/30 01:47:37;;;;;;;5.18;1.77;;;;;;;6.97;78.10;97545.81;5074734;28;20505;-63
2021/01/30 01:50:09;;;;;;;7.45;2.25;;;;;;;6.98;78.51;97544.00;5090875;28;20028;-63
2021/01/30 01:52:39;;;;;;;5.72;2.10;;;;;;;6.98;78.31;97549.25;5100633;28;20053;-62
2021/01/30 01:55:13;;;;;;;3.78;1.67;;;;;;;7.03;78.52;97558.19;5087942;28;20053;-65
2021/01/30 01:57:46;;;;;;;5.13;1.70;;;;;;;7.02;78.50;97548.69;5074717;28;20041;-64
2021/01/30 02:00:14;;;;;;;3.63;1.40;;;;;;;7.03;78.48;97546.84;5074666;28;20388;-65
2021/01/30 02:02:41;;;;;;;4.95;1.60;;;;;;;7.07;78.66;97538.38;5074335;28;20047;-64
2021/01/30 02:05:12;;;;;;;6.05;1.63;;;;;;;7.04;78.75;97544.03;5074236;28;20051;-65
2021/01/30 02:07:41;;;;;;;5.70;1.80;;;;;;;7.07;79.12;97548.06;5074354;28;20055;-64
2021/01/30 02:10:12;;;;;;;3.92;1.50;;;;;;;7.02;79.00;97546.06;5074390;28;20409;-64
2021/01/30 02:12:39;;;;;;;3.20;1.38;;;;;;;6.96;79.05;97538.97;5074302;28;20045;-65
2021/01/30 02:15:07;;;;;;;3.58;1.40;;;;;;;7.01;79.11;97522.59;5073885;28;20047;-65
2021/01/30 02:17:43;;;;;;;3.80;1.35;;;;;;;7.01;79.13;97530.47;5074189;28;20090;-65
2021/01/30 02:21:03;;;;;;;4.82;1.42;;;;;;;6.97;79.13;97521.38;5074236;28;20058;-63
2021/01/30 02:24:17;;;;;;;5.03;1.67;;;;;;;6.92;79.44;97520.16;5074086;28;20041;-63
2021/01/30 02:27:23;;;;;;;4.35;1.50;;;;;;;6.91;79.64;97515.91;5040279;28;20067;-63
2021/01/30 02:30:42;;;;;;;3.35;1.10;;;;;;;6.93;79.89;97513.88;5062108;28;20052;-63
2021/01/30 02:33:56;;;;;;;4.65;1.52;;;;;;;6.99;79.95;97512.28;5073951;28;20395;-63
2021/01/30 02:36:32;;;;;;;6.07;1.42;;;;;;;6.97;79.81;97503.78;5064124;28;20540;-63
2021/01/30 02:39:07;;;;;;;6.28;1.73;;;;;;;6.99;79.90;97504.41;5073888;28;20132;-63
2021/01/30 02:41:36;;;;;;;;;;;;;;;7.05;79.98;97495.69;5074191;28;20043;-64
2021/01/30 02:44:06;;;;;;;3.10;1.20;;;;;;;7.09;79.69;97496.91;5073916;28;19921;-63
2021/01/30 02:46:37;;;;;;;4.72;1.30;;;;;;;7.16;79.82;97487.22;5073642;28;20048;-64
2021/01/30 02:49:08;;;;;;;5.43;1.52;;;;;;;7.08;79.47;97492.69;5074202;28;20045;-64
2021/01/30 02:51:40;;;;;;;5.53;1.30;;;;;;;7.06;79.70;97491.25;5073704;28;20039;-64
2021/01/30 02:54:12;;;;;;;6.32;1.40;;;;;;;7.05;79.62;97484.38;5072417;28;20070;-64
2021/01/30 02:56:39;;;;;;;2.60;1.30;;;;;;;7.02;79.30;97483.00;5073378;28;20045;-64
2021/01/30 02:59:09;;;;;;;4.05;1.50;;;;;;;7.05;79.48;97479.94;5073354;28;20114;-64
2021/01/30 03:01:37;;;;;;;8.20;2.60;;;;;;;7.06;79.22;97489.47;5073270;28;20044;-64
2021/01/30 03:04:08;;;;;;;4.18;1.77;;;;;;;7.05;79.12;97482.56;5073397;28;20391;-64
2021/01/30 03:06:45;;;;;;;7.20;2.15;;;;;;;7.06;78.80;97484.19;5073078;28;20049;-63
2021/01/30 03:09:19;;;;;;;8.75;1.90;;;;;;;7.02;78.68;97490.88;5073328;28;20041;-63
2021/01/30 03:11:53;;;;;;;6.38;2.30;;;;;;;7.03;78.73;97479.34;5073198;28;20036;-64
2021/01/30 03:14:30;;;;;;;7.03;2.53;;;;;;;7.05;78.90;97481.75;5072868;28;20509;-63
2021/01/30 03:17:01;;;;;;;7.13;1.80;;;;;;;7.01;78.88;97478.72;5072977;28;20051;-62
2021/01/30 03:19:30;;;;;;;9.13;2.00;;;;;;;7.03;78.95;97494.31;5073071;28;20049;-63
2021/01/30 03:22:02;;;;;;;7.65;1.80;;;;;;;7.00;78.71;97477.13;5072751;28;20074;-63
2021/01/30 03:24:30;;;;;;;7.10;1.80;;;;;;;6.99;78.81;97472.06;5072793;28;20048;-63
2021/01/30 03:26:57;;;;;;;7.35;2.40;;;;;;;6.99;78.66;97474.69;5072761;28;20054;-64
2021/01/30 03:29:24;;;;;;;11.38;2.70;;;;;;;7.07;78.89;97477.94;5072818;28;20044;-64
2021/01/30 03:31:52;;;;;;;6.85;2.20;;;;;;;7.11;78.96;97479.16;5072774;28;20045;-64
2021/01/30 03:34:19;;;;;;;5.30;1.70;;;;;;;7.10;78.62;97480.16;5072449;28;20562;-63
2021/01/30 03:36:46;;;;;;;6.57;1.63;;;;;;;7.11;78.69;97470.47;5072656;28;20074;-64
2021/01/30 03:39:16;;;;;;;6.75;1.77;;;;;;;7.14;78.50;97473.50;5072665;28;20037;-64
2021/01/30 03:41:43;;;;;;;9.05;2.10;;;;;;;7.15;78.45;97469.03;5072653;28;20051;-64
2021/01/30 03:44:14;;;;;;;4.63;1.33;;;;;;;7.15;78.12;97464.59;5072374;28;20521;-64
2021/01/30 03:46:41;;;;;;;8.27;1.98;;;;;;;7.13;78.05;97468.41;5072410;28;20063;-63
2021/01/30 03:49:08;;;;;;;5.45;1.80;;;;;;;7.08;77.94;97460.34;5072467;28;20048;-62
2021/01/30 03:51:35;;;;;;;5.07;1.50;;;;;;;7.07;78.38;97454.28;5071020;28;20502;-64
2021/01/30 03:54:01;;;;;;;5.60;1.50;;;;;;;7.12;78.19;97454.47;5072483;28;20048;-64
2021/01/30 03:56:29;;;;;;;7.68;1.58;;;;;;;7.11;78.11;97452.06;5072122;28;20041;-63
2021/01/30 03:58:55;;;;;;;9.32;1.88;;;;;;;7.16;78.05;97447.00;5072435;28;20041;-63
2021/01/30 04:01:29;;;;;;;8.40;2.00;;;;;;;7.11;77.68;97449.44;5072094;28;20053;-64
2021/01/30 04:04:04;;;;;;;8.82;2.00;;;;;;;7.08;77.92;97444.56;5072219;28;20067;-63
2021/01/30 04:06:31;;;;;;;8.90;1.80;;;;;;;7.07;77.85;97451.66;5071563;28;20045;-64
2021/01/30 04:08:57;;;;;;;13.88;3.20;;;;;;;7.05;77.99;97445.78;5072274;28;20128;-64
2021/01/30 04:11:25;;;;;;;8.23;1.75;;;;;;;7.04;77.80;97438.09;5072311;28;20056;-64
2021/01/30 04:13:53;;;;;;;10.52;2.30;;;;;;;7.08;77.70;97434.06;5072232;28;20410;-64
2021/01/30 04:16:20;;;;;;;9.65;2.30;;;;;;;7.03;76.93;97439.94;5070789;28;20072;-63
2021/01/30 04:18:47;;;;;;;9.88;1.88;;;;;;;7.08;77.25;97441.94;5072348;28;20052;-63
2021/01/30 04:21:14;;;;;;;8.80;3.05;;;;;;;7.14;77.08;97438.50;5072077;28;20102;-64
2021/01/30 04:23:45;;;;;;;12.70;3.08;;;;;;;7.17;77.03;97430.19;5072040;28;20055;-63
2021/01/30 04:26:12;;;;;;;13.15;2.35;;;;;;;7.15;76.85;97438.31;5071805;28;20033;-64
2021/01/30 04:28:39;;;;;;;12.52;3.28;;;;;;;7.12;76.54;97432.66;5071954;28;20044;-64
2021/01/30 04:31:08;;;;;;;11.85;3.50;;;;;;;7.11;76.42;97425.78;5071966;28;20052;-63
2021/01/30 04:33:34;;;;;;;16.08;2.97;;;;;;;7.06;76.26;97430.81;5071951;28;20050;-63
2021/01/30 04:36:06;;;;;;;13.75;2.70;;;;;;;7.04;75.38;97430.22;5071727;28;20055;-64
2021/01/30 04:38:33;;;;;;;17.20;3.05;;;;;;;7.06;75.92;97430.81;5071876;28;20116;-63
2021/01/30 04:41:05;;;;;;;15.65;3.78;;;;;;;7.04;75.86;97417.88;5070554;28;20075;-64
2021/01/30 04:43:38;;;;;;;17.15;2.92;;;;;;;7.07;75.52;97427.19;5071869;28;20040;-64
2021/01/30 04:46:14;;;;;;;14.05;3.42;;;;;;;7.09;75.66;97435.66;5071622;28;20402;-64
2021/01/30 04:48:52;;;;;;;13.00;3.22;;;;;;;7.14;75.65;97431.44;5071798;28;20121;-63
2021/01/30 04:51:29;;;;;;;18.27;4.80;;;;;;;7.15;75.59;97429.63;5071695;28;20037;-64
2021/01/30 04:54:08;;;;;;;15.63;3.30;;;;;;;7.14;75.27;97436.69;5071836;28;20037;-63
2021/01/30 04:56:50;;;;;;;15.07;3.70;;;;;;;7.13;75.38;97429.81;5071745;28;20410;-64
2021/01/30 04:59:26;;;;;;;13.32;2.63;;;;;;;7.08;75.14;97428.81;5071704;28;20044;-64
2021/01/30 05:01:59;;;;;;;18.35;3.75;;;;;;;7.06;75.36;97428.19;5071576;28;20040;-63
2021/01/30 05:04:30;;;;;;;16.35;4.13;;;;;;;7.03;75.18;97420.72;5071423;28;20052;-63
2021/01/30 05:07:13;;;;;;;16.58;3.70;;;;;;;6.99;75.17;97420.34;5071662;28;20049;-64
2021/01/30 05:09:49;;;;;;;16.75;3.38;;;;;;;6.99;75.39;97425.59;5072113;28;20037;-63
2021/01/30 05:12:19;;;;;;;18.13;2.95;;;;;;;6.92;75.20;97422.94;5072094;28;20040;-63
2021/01/30 05:14:54;;;;;;;12.70;4.35;;;;;;;6.95;75.12;97425.19;5071294;28;20052;-62
2021/01/30 05:17:26;;;;;;;14.80;3.40;;;;;;;6.93;75.00;97415.88;5072596;28;20052;-63
2021/01/30 05:19:58;;;;;;;23.55;4.55;;;;;;;6.92;75.18;97430.03;5075514;28;20102;-64
2021/01/30 05:22:34;;;;;;;21.15;3.65;;;;;;;6.93;74.88;97423.75;5075296;28;20050;-64
2021/01/30 05:25:03;;;;;;;19.55;3.80;;;;;;;6.89;74.59;97433.84;5075432;28;20047;-63
2021/01/30 05:27:56;;;;;;;11.15;2.92;;;;;;;6.90;74.47;97418.94;5073975;28;20041;-63
2021/01/30 05:30:31;;;;;;;18.45;2.88;;;;;;;6.93;74.84;97413.25;5075493;28;20052;-64
2021/01/30 05:33:13;;;;;;;16.25;3.88;;;;;;;6.92;74.76;97416.88;5073815;28;20048;-63
2021/01/30 05:35:47;;;;;;;15.07;4.18;;;;;;;6.94;75.04;97407.81;5087482;28;20028;-61
2021/01/30 05:38:27;;;;;;;14.43;3.17;;;;;;;6.97;74.53;97408.41;5100944;28;20024;-61
2021/01/30 05:41:00;;;;;;;14.30;3.38;;;;;;;6.95;74.70;97405.97;5090440;28;20040;-64
2021/01/30 05:43:33;;;;;;;16.25;2.95;;;;;;;6.92;74.71;97404.56;5075060;28;20040;-63
2021/01/30 05:46:01;;;;;;;14.95;3.15;;;;;;;6.91;74.79;97391.63;5074818;28;20071;-63
2021/01/30 05:48:32;;;;;;;19.60;3.72;;;;;;;7.00;74.85;97394.84;5075045;28;20502;-64
2021/01/30 05:51:04;;;;;;;13.90;3.38;;;;;;;7.01;74.57;97399.91;5074589;28;20048;-64
2021/01/30 05:53:31;;;;;;;18.35;3.78;;;;;;;7.00;74.75;97394.84;5074986;28;20465;-63
2021/01/30 05:55:58;;;;;;;23.35;4.32;;;;;;;6.91;74.47;97389.81;5074419;28;20146;-64
2021/01/30 05:58:27;;;;;;;17.42;3.45;;;;;;;6.82;74.64;97391.03;5074605;28;20041;-64
2021/01/30 06:01:26;;;;;;;14.60;2.78;;;;;;;6.78;75.05;97387.19;5074682;28;20060;-63
2021/01/30 06:04:00;;;;;;;21.27;3.78;;;;;;;6.80;74.88;97377.28;5074613;28;20044;-64
2021/01/30 06:06:31;;;;;;;11.93;3.20;;;;;;;6.82;74.96;97377.91;5074333;28;20044;-63
2021/01/30 06:09:01;;;;;;;17.05;3.38;;;;;;;6.83;75.16;97371.63;5074555;28;20040;-63
2021/01/30 06:11:39;;;;;;;18.27;3.70;;;;;;;6.92;75.24;97372.22;5074582;28;20048;-63
2021/01/30 06:14:07;;;;;;;19.63;3.60;;;;;;;6.88;74.96;97371.03;5074507;28;20098;-63
2021/01/30 06:16:36;;;;;;;14.30;3.70;;;;;;;6.87;75.01;97372.84;5074413;28;20049;-62
2021/01/30 06:19:13;;;;;;;20.73;4.50;;;;;;;6.91;75.08;97375.88;5074444;28;20094;-63
2021/01/30 06:21:40;;;;;;;13.32;3.70;;;;;;;6.91;75.22;97368.00;5074596;28;20052;-62
2021/01/30 06:24:10;;;;;;;17.60;3.63;;;;;;;6.95;75.08;97366.56;5074274;28;20048;-63
2021/01/30 06:26:43;;;;;;;18.63;4.22;;;;;;;6.95;75.08;97356.06;5074150;28;20563;-63
2021/01/30 06:29:29;;;;;;;23.85;4.53;;;;;;;6.99;75.14;97362.53;5074055;28;20445;-63
2021/01/30 06:32:06;;;;;;;19.15;4.38;;;;;;;7.04;75.05;97364.53;5074542;28;20040;-63
2021/01/30 06:34:37;;;;;;;18.88;3.83;;;;;;;6.96;75.41;97355.03;5074160;28;20045;-63
2021/01/30 06:37:14;;;;;;;19.40;4.05;;;;;;;7.00;75.53;97355.44;5074227;28;20052;-63
2021/01/30 06:39:45;;;;;;;19.23;4.38;;;;;;;7.03;75.55;97355.03;5074163;28;20036;-63
2021/01/30 06:42:15;;;;;;;24.35;5.68;;;;;;;6.93;75.46;97358.06;5074054;28;20048;-63
2021/01/30 06:44:43;;;;;;;15.52;3.15;;;;;;;6.95;75.66;97351.63;5074020;28;20048;-63
2021/01/30 06:47:15;;;;;;;20.20;4.18;;;;;;;7.07;75.53;97356.25;5073898;28;20221;-63
2021/01/30 06:49:46;;;;;;;19.33;5.18;;;;;;;7.12;75.79;97354.63;5072874;28;20048;-63
2021/01/30 06:52:21;;;;;;;18.25;4.07;;;;;;;7.17;75.62;97346.09;5074423;28;20127;-62
2021/01/30 06:54:48;;;;;;;26.88;5.88;;;;;;;7.16;75.18;97347.13;5073676;28;20045;-63
2021/01/30 06:57:20;;;;;;;18.70;5.20;;;;;;;7.16;75.17;97350.56;5072465;28;20115;-63
2021/01/30 06:59:54;;;;;;;21.98;3.92;;;;;;;7.16;75.32;97345.31;5073899;28;20045;-62
2021/01/30 07:02:26;;;;;;;16.80;4.20;;;;;;;7.16;75.46;97352.38;5075496;28;20063;-63
2021/01/30 07:05:16;;;;;;;15.57;3.95;;;;;;;7.22;75.29;97346.28;5076486;28;20044;-64
2021/01/30 07:07:57;;;;;;;26.15;4.70;;;;;;;7.23;75.19;97352.38;5075409;28;20410;-63
2021/01/30 07:10:32;;;;;;;20.85;4.30;;;;;;;7.24;74.91;97353.97;5075093;28;20453;-63
2021/01/30 07:13:26;;;;;;;29.65;5.28;;;;;;;7.26;75.27;97346.69;5073272;28;20040;-63
2021/01/30 07:16:04;;;;;;;19.58;5.45;;;;;;;7.30;75.04;97343.44;5073020;28;20047;-62
2021/01/30 07:18:32;;;;;;;23.23;5.93;;;;;;;7.33;74.96;97342.22;5073197;28;20521;-63
2021/01/30 07:21:13;;;;;;;26.88;4.82;;;;;;;7.35;74.95;97340.22;5073269;28;20137;-63
2021/01/30 07:23:46;;;;;;;23.30;5.85;;;;;;;7.37;74.84;97340.78;5073014;28;20413;-63
2021/01/30 07:26:21;;;;;;;21.27;4.20;;;;;;;7.35;74.81;97341.00;5071521;28;20048;-63
2021/01/30 07:28:55;;;;;;;15.95;4.90;;;;;;;7.40;75.10;97329.88;5073042;28;20509;-63
2021/01/30 07:31:28;;;;;;;20.20;4.82;;;;;;;7.42;75.13;97333.09;5073178;28;20048;-62
2021/01/30 07:34:02;;;;;;;18.05;4.55;;;;;;;7.41;74.96;97339.38;5076458;28;20538;-63
2021/01/30 07:36:35;;;;;;;20.77;5.38;;;;;;;7.44;75.12;97333.69;5074969;28;20063;-64
2021/01/30 07:39:09;;;;;;;21.08;5.78;;;;;;;7.40;74.99;97332.50;5075778;28;20044;-65
2021/01/30 07:41:48;;;;;;;22.75;5.55;;;;;;;7.32;75.28;97332.72;5075020;28;20388;-65
2021/01/30 07:44:20;;;;;;;21.27;4.75;;;;;;;7.35;75.24;97327.88;5072486;28;20054;-62
2021/01/30 07:46:57;;;;;;;17.83;4.88;;;;;;;7.38;75.34;97335.31;5075271;28;20449;-64
2021/01/30 07:49:28;;;;;;;28.13;5.60;;;;;;;7.40;75.32;97340.38;5072808;28;20132;-63
2021/01/30 07:52:00;;;;;;;23.73;5.40;;;;;;;7.43;75.35;97334.72;5073316;28;20506;-63
2021/01/30 07:54:26;;;;;;;24.20;4.82;;;;;;;7.44;75.10;97329.25;5072310;28;20049;-62
2021/01/30 07:57:19;;;;;;;25.52;5.43;;;;;;;7.52;75.35;97330.84;5072370;28;20082;-63
2021/01/30 07:59:54;;;;;;;22.92;4.70;;;;;;;7.53;75.27;97329.00;5072596;28;20095;-62
2021/01/30 08:02:48;;;;;;;24.00;6.03;;;;;;;7.55;75.37;97322.53;5072340;28;20494;-63
2021/01/30 08:05:31;;;;;;;17.73;4.18;;;;;;;7.56;75.12;97318.88;5072187;28;20068;-62
2021/01/30 08:08:09;;;;;;;25.60;5.55;;;;;;;7.58;74.96;97316.84;5072232;28;20560;-63
2021/01/30 08:10:49;;;;;;;20.10;4.28;;;;;;;7.64;75.00;97307.31;5072367;28;20127;-63
2021/01/30 08:13:27;;;;;;;30.88;5.25;;;;;;;7.67;75.23;97307.72;5072418;28;20033;-63
2021/01/30 08:16:04;;;;;;;21.20;4.30;;;;;;;7.69;75.04;97315.38;5072385;28;20110;-62
2021/01/30 08:18:37;;;;;;;22.20;4.68;;;;;;;7.67;75.11;97307.72;5072351;28;20044;-63
2021/01/30 08:21:13;;;;;;;26.75;5.75;;;;;;;7.60;75.20;97300.88;5072463;28;20046;-63
2021/01/30 08:23:52;;;;;;;28.10;4.72;;;;;;;7.63;75.15;97303.88;5072009;28;20079;-62
2021/01/30 08:26:24;;;;;;;25.50;5.53;;;;;;;7.65;75.22;97303.66;5072008;28;20040;-63
2021/01/30 08:29:00;;;;;;;20.45;4.53;;;;;;;7.68;75.35;97306.69;5072138;28;20419;-63
2021/01/30 08:31:35;;;;;;;24.02;5.47;;;;;;;7.64;75.26;97307.31;5073191;28;20040;-63
2021/01/30 08:34:06;;;;;;;21.13;5.30;;;;;;;7.63;75.38;97295.16;5072438;28;20046;-63
2021/01/30 08:36:36;;;;;;;27.05;6.43;;;;;;;7.76;75.30;97299.56;5071723;28;20044;-63
2021/01/30 08:39:16;;;;;;;20.35;6.45;;;;;;;7.80;75.34;97298.13;5072049;28;20056;-62
2021/01/30 08:41:47;;;;;;;25.92;6.03;;;;;;;7.86;75.04;97294.63;5071952;28;20044;-63
2021/01/30 08:44:38;;;;;;;30.20;6.05;;;;;;;7.83;75.04;97292.41;5071618;28;20041;-63
2021/01/30 08:47:08;;;;;;;25.08;6.25;;;;;;;7.91;75.05;97292.97;5070402;28;20055;-63
2021/01/30 08:49:35;;;;;;;23.65;5.13;;;;;;;7.90;74.99;97298.47;5071849;28;20544;-63
2021/01/30 08:52:21;;;;;;;20.50;5.80;;;;;;;8.00;74.80;97288.28;5072659;28;20045;-64
2021/01/30 08:54:50;;;;;;;20.98;4.88;;;;;;;8.03;74.81;97294.94;5075678;28;20693;-64
2021/01/30 08:57:43;;;;;;;29.42;6.70;;;;;;;8.08;74.34;97287.19;5074583;28;20083;-64
2021/01/30 09:00:13;;;;;;;24.38;6.43;;;;;;;8.07;74.49;97288.22;5075897;28;20044;-64
2021/01/30 09:02:50;;;;;;;28.33;6.57;;;;;;;8.20;74.33;97288.13;5075747;28;20051;-65
2021/01/30 09:05:37;;;;;;;18.85;6.07;;;;;;;8.28;74.35;97285.22;5075553;28;20071;-65
2021/01/30 09:08:44;;;;;;;18.27;5.90;;;;;;;8.31;74.14;97281.38;5074469;28;20309;-65
2021/01/30 09:11:43;;;;;;;20.23;6.32;;;;;;;8.28;74.03;97281.78;5075878;28;20064;-65
2021/01/30 09:14:48;;;;;;;26.45;6.28;;;;;;;8.26;73.76;97274.13;5052308;28;20060;-64
2021/01/30 09:17:36;;;;;;;15.50;4.45;;;;;;;8.27;74.01;97280.97;5075510;28;20047;-65
2021/01/30 09:20:19;;;;;;;18.48;4.80;;;;;;;8.31;74.02;97273.47;5075383;28;20091;-65
2021/01/30 09:23:11;;;;;;;19.48;4.93;;;;;;;8.21;73.62;97273.97;5075807;28;20041;-65
2021/01/30 09:25:48;;;;;;;34.03;6.68;;;;;;;8.14;74.04;97278.47;5099997;28;20030;-63
2021/01/30 09:28:20;;;;;;;19.35;5.10;;;;;;;8.15;73.92;97272.16;5100592;28;20036;-63
2021/01/30 09:30:57;;;;;;;21.88;5.18;;;;;;;8.24;73.95;97265.59;5079198;28;20037;-66
2021/01/30 09:33:28;;;;;;;22.75;5.82;;;;;;;8.26;73.95;97270.69;5075814;28;20048;-66
2021/01/30 09:36:08;;;;;;;22.95;5.32;;;;;;;8.28;73.52;97266.00;5075362;28;20075;-65
2021/01/30 09:38:37;;;;;;;22.05;5.28;;;;;;;8.23;73.22;97264.00;5075245;28;20051;-66
2021/01/30 09:41:20;;;;;;;18.70;4.65;;;;;;;8.22;73.66;97258.97;5075025;28;20040;-65
2021/01/30 09:43:49;;;;;;;17.20;4.88;;;;;;;8.22;73.87;97256.34;5074949;28;20047;-65
2021/01/30 09:46:22;;;;;;;18.75;4.68;;;;;;;8.24;73.59;97257.72;5074689;28;20048;-65
2021/01/30 09:48:50;;;;;;;19.05;3.90;;;;;;;8.27;73.02;97253.84;5074829;28;20135;-65
2021/01/30 09:51:18;;;;;;;13.68;4.18;;;;;;;8.23;73.11;97261.38;5074569;28;20063;-64
2021/01/30 09:53:51;;;;;;;13.63;3.13;;;;;;;8.33;73.26;97261.72;5074720;28;20041;-67
2021/01/30 09:56:21;;;;;;;10.98;4.15;;;;;;;8.27;72.79;97259.91;5074470;28;20490;-64
2021/01/30 09:58:54;;;;;;;12.55;3.60;;;;;;;8.22;73.13;97264.22;5073564;28;20048;-65
2021/01/30 10:01:29;;;;;;;8.27;2.78;;;;;;;8.16;73.23;97266.72;5074691;28;20051;-65
2021/01/30 10:03:57;;;;;;;9.48;3.95;;;;;;;8.18;73.26;97264.66;5074519;28;20079;-65
2021/01/30 10:06:30;;;;;;;13.20;3.28;;;;;;;8.22;73.41;97265.03;5074622;28;20049;-64
2021/01/30 10:09:11;;;;;;;10.45;3.88;;;;;;;8.21;73.49;97265.25;5074738;28;20055;-65
2021/01/30 10:11:41;;;;;;;8.30;2.80;;;;;;;8.14;73.33;97275.81;5074650;28;20045;-66
2021/01/30 10:14:09;;;;;;;9.48;2.65;;;;;;;8.13;73.68;97264.50;5074517;28;20047;-65
2021/01/30 10:16:37;;;;;;;7.57;2.60;;;;;;;8.14;73.42;97260.84;5074321;28;20057;-64
2021/01/30 10:19:11;;;;;;;9.07;3.38;;;;;;;8.12;73.68;97265.53;5074240;28;20055;-65
2021/01/30 10:21:39;;;;;;;10.70;3.05;;;;;;;8.06;73.93;97262.94;5074430;28;20495;-65
2021/01/30 10:24:16;;;;;;;13.40;3.85;;;;;;;8.06;74.25;97266.38;5073876;28;20387;-65
2021/01/30 10:26:43;;;;;;;8.40;2.70;;;;;;;8.06;74.39;97265.56;5074126;28;20055;-65
2021/01/30 10:29:14;;;;;;;7.38;2.50;;;;;;;8.08;74.59;97258.25;5072820;28;20048;-65
2021/01/30 10:31:56;;;;;;;6.30;2.50;;;;;;;8.06;74.54;97263.72;5074081;28;20047;-65
2021/01/30 10:34:27;;;;;;;10.45;2.80;;;;;;;7.99;74.62;97259.53;5073797;28;20044;-64
2021/01/30 10:36:59;;;;;;;8.85;3.72;;;;;;;8.00;74.80;97254.06;5074188;28;20056;-65
2021/01/30 10:39:27;;;;;;;9.50;4.35;;;;;;;8.03;74.64;97244.94;5074455;28;20044;-65
2021/01/30 10:42:01;;;;;;;14.90;5.22;;;;;;;8.08;74.80;97242.47;5074628;28;20045;-65
2021/01/30 10:44:32;;;;;;;9.48;3.08;;;;;;;8.01;74.97;97246.97;5074712;28;20059;-66
2021/01/30 10:47:01;;;;;;;11.55;4.57;;;;;;;8.05;75.21;97243.72;5074015;28;20044;-66
2021/01/30 10:49:30;;;;;;;9.88;3.95;;;;;;;8.14;75.05;97231.88;5072939;28;20041;-66
2021/01/30 10:52:12;;;;;;;9.60;4.60;;;;;;;8.13;74.85;97232.09;5073855;28;20051;-65
2021/01/30 10:54:40;;;;;;;10.07;3.58;;;;;;;8.04;75.06;97230.75;5073748;28;20041;-66
2021/01/30 10:57:22;;;;;;;12.65;4.18;;;;;;;8.11;75.10;97223.59;5073875;28;20264;-66
2021/01/30 11:00:01;;;;;;;10.35;4.45;;;;;;;8.13;75.11;97222.38;5073721;28;20123;-66
2021/01/30 11:02:38;;;;;;;13.40;3.75;;;;;;;8.17;74.95;97215.66;5073646;28;20044;-65
2021/01/30 11:05:25;;;;;;;11.73;4.70;;;;;;;8.32;74.86;97214.50;5073408;28;20033;-64
2021/01/30 11:07:54;;;;;;;11.75;4.43;;;;;;;8.34;74.62;97212.47;5073315;28;20431;-66
2021/01/30 11:10:35;;;;;;;7.95;5.18;;;;;;;8.43;74.50;97204.09;5073656;28;20037;-65
2021/01/30 11:13:10;;;;;;;10.60;3.92;;;;;;;8.51;74.20;97202.22;5073640;28;20071;-65
2021/01/30 11:15:41;;;;;;;6.82;2.95;;;;;;;8.55;74.24;97187.59;5071311;28;20045;-65
2021/01/30 11:18:31;;;;;;;11.65;5.30;;;;;;;8.62;74.22;97183.06;5073568;28;20040;-66
2021/01/30 11:20:59;;;;;;;17.23;8.90;;;;;;;8.69;74.16;97183.78;5074634;28;20057;-66
2021/01/30 11:23:36;;;;;;;26.30;15.50;;;;;;;8.70;73.65;97174.06;5074752;28;20040;-65
2021/01/30 11:26:29;;;;;;;9.68;3.83;;;;;;;8.71;73.16;97160.66;5076023;28;20040;-66
2021/01/30 11:28:56;;;;;;;27.05;17.23;;;;;;;8.83;73.27;97164.16;5069260;28;20059;-66
2021/01/30 11:31:25;;;;;;;22.52;8.93;;;;;;;8.83;73.53;97158.91;5075804;28;20076;-66
2021/01/30 11:33:55;;;;;;;12.93;7.25;;;;;;;8.82;73.55;97144.13;5077629;28;20114;-67
2021/01/30 11:36:22;;;;;;;12.15;5.35;;;;;;;8.90;73.45;97143.81;5072414;28;20044;-66
2021/01/30 11:38:55;;;;;;;8.98;4.30;;;;;;;8.88;72.38;97142.41;5072865;28;20040;-66
2021/01/30 11:41:22;;;;;;;21.25;10.77;;;;;;;8.74;72.59;97136.53;5072829;28;20040;-66
2021/01/30 11:43:49;;;;;;;21.17;11.25;;;;;;;8.78;73.44;97137.69;5072834;28;20048;-65
2021/01/30 11:46:16;;;;;;;32.70;18.48;;;;;;;8.84;72.68;97136.00;5071496;28;20044;-66
2021/01/30 11:48:44;;;;;;;9.43;4.55;;;;;;;8.79;72.27;97131.38;5072751;28;20044;-66
2021/01/30 11:51:19;;;;;;;13.48;5.20;;;;;;;8.73;72.56;97126.97;5072384;28;20132;-65
2021/01/30 11:53:46;;;;;;;9.30;4.70;;;;;;;8.75;72.53;97113.63;5072596;28;20403;-66
2021/01/30 11:56:13;;;;;;;14.23;7.20;;;;;;;8.78;72.31;97118.44;5072325;28;20502;-67
2021/01/30 11:58:40;;;;;;;4.78;2.60;;;;;;;8.81;72.56;97105.59;5072526;28;20051;-67
2021/01/30 12:01:07;;;;;;;6.25;2.67;;;;;;;8.82;72.22;97109.06;5071164;28;20048;-67
2021/01/30 12:03:34;;;;;;;7.32;2.30;;;;;;;8.81;72.21;97105.59;5072410;28;20123;-66
2021/01/30 12:06:02;;;;;;;4.78;2.42;;;;;;;8.71;71.67;97102.72;5072077;28;20083;-67